Eaglesham, United Kingdom
Current Conditions -  °F | °C
As of 5:20 AM on Sunday 21 Dec 2014 (Local Time) from EGPF Reporting Station
Few Clouds Few Clouds  
Wind Chill:   Ceiling: Unl
Heat Index:   Visibility: 6mi
Dew Point:   Wind: 30mph
Humidity: 87%   Direction: 230°SW
Pressure: 29.97"   Gusts: NA
Location:  55.74°N, 4.27°W
Report Text: EGPF 210520Z AUTO 23026KT 9999 FEW018 08/06 Q1015
Loading
Personal Weather Stations






























Interactive Weather Map New forecast layout! Learn more

10-Day Weather Forecast

Advertisements
Track Severe Weather on mobile